createdAt,value
2023-03-22T00:02:55.273Z,41.81
2023-03-22T00:05:58.351Z,41.60
2023-03-22T00:09:00.798Z,41.38
2023-03-22T00:12:02.963Z,41.61
2023-03-22T00:15:05.829Z,41.70
2023-03-22T00:18:08.235Z,41.97
2023-03-22T00:21:15.406Z,41.91
2023-03-22T00:24:17.643Z,41.98
2023-03-22T00:27:19.906Z,42.30
2023-03-22T00:30:22.051Z,42.41
2023-03-22T00:33:24.336Z,42.90
2023-03-22T00:36:26.522Z,42.70
2023-03-22T00:39:28.710Z,42.99
2023-03-22T00:42:31.072Z,42.92
2023-03-22T00:45:36.186Z,43.39
2023-03-22T00:48:38.464Z,43.40
2023-03-22T00:51:40.602Z,43.82
2023-03-22T00:54:42.771Z,43.46
2023-03-22T00:57:44.973Z,43.37
2023-03-22T01:00:48.148Z,43.33
2023-03-22T01:03:50.651Z,43.79
2023-03-22T01:06:59.265Z,43.67
2023-03-22T01:10:01.541Z,44.22
2023-03-22T01:13:04.487Z,44.05
2023-03-22T01:16:07.463Z,43.42
2023-03-22T01:19:09.734Z,42.84
2023-03-22T01:22:12.106Z,43.13
2023-03-22T01:25:14.583Z,42.51
2023-03-22T01:28:16.947Z,42.92
2023-03-22T01:31:19.290Z,43.41
2023-03-22T01:34:22.349Z,43.33
2023-03-22T01:37:27.680Z,43.33
2023-03-22T01:40:29.887Z,43.71
2023-03-22T01:43:32.379Z,43.90
2023-03-22T01:46:34.729Z,44.10
2023-03-22T01:49:37.730Z,43.89
2023-03-22T01:52:40.595Z,43.83
2023-03-22T01:55:47.790Z,44.24
2023-03-22T01:58:57.446Z,44.16
2023-03-22T02:02:07.959Z,44.76
2023-03-22T02:05:12.347Z,45.21
2023-03-22T02:08:15.742Z,44.51
2023-03-22T02:11:33.568Z,44.27
2023-03-22T02:14:44.653Z,43.71
2023-03-22T02:18:38.653Z,43.62
2023-03-22T02:22:01.975Z,44.45
2023-03-22T02:25:23.151Z,43.28
2023-03-22T02:28:56.408Z,43.56
2023-03-22T02:32:17.141Z,43.77
2023-03-22T02:35:42.735Z,43.59
2023-03-22T02:38:57.749Z,43.35
2023-03-22T02:42:16.036Z,43.88
2023-03-22T02:45:44.753Z,43.31
2023-03-22T02:49:02.044Z,43.45
2023-03-22T02:52:17.567Z,44.06
2023-03-22T02:55:46.390Z,43.93
2023-03-22T02:58:53.201Z,43.47
2023-03-22T03:01:57.626Z,43.57
2023-03-22T03:04:59.993Z,43.72
2023-03-22T03:08:02.737Z,43.75
2023-03-22T03:11:07.149Z,43.69
2023-03-22T03:14:20.242Z,43.84
2023-03-22T03:17:32.531Z,43.39
2023-03-22T03:20:56.589Z,43.66
2023-03-22T03:24:27.893Z,43.30
2023-03-22T03:27:38.539Z,43.56
2023-03-22T03:30:49.549Z,43.37
2023-03-22T03:34:00.740Z,43.25
2023-03-22T03:37:15.970Z,43.48
2023-03-22T03:40:23.512Z,44.38
2023-03-22T03:43:25.736Z,44.18
2023-03-22T03:46:29.235Z,44.15
2023-03-22T03:49:31.377Z,44.02
2023-03-22T03:52:34.693Z,44.16
2023-03-22T03:55:37.657Z,44.35
2023-03-22T03:58:40.809Z,44.40
2023-03-22T04:01:53.605Z,44.63
2023-03-22T04:05:00.477Z,43.93
2023-03-22T04:08:02.597Z,44.29
2023-03-22T04:11:05.410Z,44.19
2023-03-22T04:14:08.067Z,43.32
2023-03-22T04:17:10.461Z,44.52
2023-03-22T04:20:13.835Z,44.58
2023-03-22T04:23:16.240Z,43.92
2023-03-22T04:26:21.896Z,44.09
2023-03-22T04:29:40.662Z,43.79
2023-03-22T04:33:07.142Z,44.29
2023-03-22T04:36:43.017Z,44.03
2023-03-22T04:40:08.066Z,44.82
2023-03-22T04:43:19.049Z,44.84
2023-03-22T04:46:27.177Z,44.21
2023-03-22T04:49:38.240Z,44.15
2023-03-22T04:52:40.980Z,44.08
2023-03-22T04:55:43.242Z,44.22
2023-03-22T04:58:46.172Z,44.04
2023-03-22T05:01:49.316Z,44.01
2023-03-22T05:04:54.857Z,43.53
2023-03-22T05:08:10.613Z,43.64
2023-03-22T05:11:16.296Z,43.92
2023-03-22T05:14:25.595Z,43.71
2023-03-22T05:17:28.295Z,43.69
2023-03-22T05:20:32.673Z,43.51
2023-03-22T05:23:51.697Z,44.26
2023-03-22T05:26:55.203Z,44.57
2023-03-22T05:30:02.155Z,44.10
2023-03-22T05:33:22.057Z,43.69
2023-03-22T05:36:29.706Z,44.03
2023-03-22T05:39:48.964Z,43.82
2023-03-22T05:42:52.219Z,43.38
2023-03-22T05:45:58.822Z,43.01
2023-03-22T05:49:14.311Z,42.52
2023-03-22T05:52:17.154Z,42.46
2023-03-22T05:55:32.000Z,42.64
2023-03-22T05:58:36.652Z,42.50
2023-03-22T06:01:39.542Z,42.81
2023-03-22T06:04:49.645Z,42.64
2023-03-22T06:07:52.389Z,42.17
2023-03-22T06:10:56.452Z,42.44
2023-03-22T06:13:58.755Z,42.41
2023-03-22T06:17:05.954Z,42.53
2023-03-22T06:20:11.927Z,42.57
2023-03-22T06:23:16.808Z,42.47
2023-03-22T06:26:21.349Z,42.86
2023-03-22T06:29:23.717Z,41.95
2023-03-22T06:32:28.929Z,42.64
2023-03-22T06:35:33.234Z,42.80
2023-03-22T06:38:35.661Z,42.90
2023-03-22T06:41:38.193Z,42.90
2023-03-22T06:44:43.855Z,43.02
2023-03-22T06:48:09.781Z,43.09
2023-03-22T06:51:32.337Z,42.59
2023-03-22T06:54:34.805Z,43.04
2023-03-22T06:57:37.034Z,42.68
2023-03-22T07:00:39.733Z,42.76
2023-03-22T07:03:43.264Z,42.28
2023-03-22T07:06:49.365Z,42.17
2023-03-22T07:09:53.879Z,41.38
2023-03-22T07:13:01.063Z,40.26
2023-03-22T07:16:03.748Z,40.60
2023-03-22T07:19:29.372Z,40.87
2023-03-22T07:22:33.340Z,40.94
2023-03-22T07:25:35.631Z,40.63
2023-03-22T07:28:53.624Z,40.80
2023-03-22T07:32:02.084Z,40.86
2023-03-22T07:35:17.001Z,40.41
2023-03-22T07:38:19.780Z,40.22
2023-03-22T07:41:24.034Z,40.05
2023-03-22T07:44:30.867Z,39.49
2023-03-22T07:47:53.233Z,39.31
2023-03-22T07:51:01.122Z,39.26
2023-03-22T07:54:03.427Z,38.95
2023-03-22T07:57:06.956Z,38.87
2023-03-22T08:00:13.842Z,38.65
2023-03-22T08:03:23.338Z,38.69
2023-03-22T08:06:37.309Z,38.83
2023-03-22T08:09:41.782Z,38.69
2023-03-22T08:12:46.517Z,38.50
2023-03-22T08:15:57.672Z,38.93
2023-03-22T08:19:00.412Z,38.69
2023-03-22T08:22:05.231Z,38.80
2023-03-22T08:25:33.483Z,38.92
2023-03-22T08:28:43.087Z,38.85
2023-03-22T08:31:49.783Z,38.93
2023-03-22T08:34:52.838Z,39.02
2023-03-22T08:37:56.387Z,38.87
2023-03-22T08:41:05.966Z,39.34
2023-03-22T08:44:09.672Z,39.47
2023-03-22T08:47:14.582Z,39.04
2023-03-22T08:50:20.343Z,38.71
2023-03-22T08:53:31.444Z,38.69
2023-03-22T08:56:54.052Z,38.85
2023-03-22T09:00:11.107Z,38.99
2023-03-22T09:03:21.597Z,38.88
2023-03-22T09:06:26.214Z,38.97
2023-03-22T09:09:28.444Z,38.88
2023-03-22T09:12:32.175Z,38.82
2023-03-22T09:15:36.645Z,38.84
2023-03-22T09:18:54.371Z,39.00
2023-03-22T09:21:57.800Z,38.84
2023-03-22T09:25:10.356Z,38.68
2023-03-22T09:28:14.163Z,38.61
2023-03-22T09:31:20.345Z,38.69
2023-03-22T09:34:27.099Z,38.21
2023-03-22T09:37:30.599Z,38.32
2023-03-22T09:40:37.686Z,38.02
2023-03-22T09:43:43.356Z,38.25
2023-03-22T09:46:52.986Z,38.26
2023-03-22T09:50:04.596Z,37.75
2023-03-22T09:53:13.686Z,38.10
2023-03-22T09:56:34.229Z,38.21
2023-03-22T10:00:02.200Z,38.10
2023-03-22T10:03:38.355Z,37.82
2023-03-22T10:06:43.010Z,37.59
2023-03-22T10:09:50.572Z,37.63
2023-03-22T10:13:07.753Z,37.68
2023-03-22T10:16:21.576Z,37.54
2023-03-22T10:19:27.620Z,37.64
2023-03-22T10:22:37.016Z,37.76
2023-03-22T10:25:40.825Z,37.17
2023-03-22T10:28:45.200Z,37.27
2023-03-22T10:31:47.411Z,37.53
2023-03-22T10:34:49.670Z,37.66
2023-03-22T10:37:56.488Z,37.81
2023-03-22T10:40:59.437Z,38.06
2023-03-22T10:44:06.132Z,38.15
2023-03-22T10:47:11.419Z,38.04
2023-03-22T10:50:18.595Z,38.16
2023-03-22T10:53:27.121Z,38.39
2023-03-22T10:56:31.111Z,38.42
2023-03-22T10:59:49.130Z,38.37
2023-03-22T11:02:58.490Z,38.85
2023-03-22T11:06:11.771Z,38.83
2023-03-22T11:09:17.971Z,39.06
2023-03-22T11:12:21.311Z,38.90
2023-03-22T11:15:40.469Z,39.31
2023-03-22T11:18:43.535Z,39.56
2023-03-22T11:21:46.077Z,39.63
2023-03-22T11:24:48.563Z,39.79
2023-03-22T11:28:29.249Z,39.90
2023-03-22T11:31:55.155Z,39.83
2023-03-22T11:35:23.800Z,39.69
2023-03-22T11:38:36.762Z,39.72
2023-03-22T11:41:40.322Z,39.83
2023-03-22T11:44:44.417Z,40.18
2023-03-22T11:47:46.834Z,40.33
2023-03-22T11:50:52.963Z,39.85
2023-03-22T11:54:24.992Z,40.22
2023-03-22T11:57:30.832Z,39.97
2023-03-22T12:00:37.621Z,40.21
2023-03-22T12:03:44.535Z,40.05
2023-03-22T12:06:53.281Z,40.31
2023-03-22T12:10:11.489Z,40.26
2023-03-22T12:13:29.847Z,40.20
2023-03-22T12:16:40.139Z,40.11
2023-03-22T12:19:50.228Z,39.95
2023-03-22T12:22:54.478Z,40.15
2023-03-22T12:26:12.731Z,39.22
2023-03-22T12:29:19.399Z,39.43
2023-03-22T12:32:31.173Z,39.55
2023-03-22T12:35:35.634Z,39.00
2023-03-22T12:38:41.376Z,38.83
2023-03-22T12:41:49.617Z,38.55
2023-03-22T12:45:04.743Z,38.27
2023-03-22T12:48:16.791Z,38.57
2023-03-22T12:51:19.157Z,38.09
2023-03-22T12:54:25.023Z,38.48
2023-03-22T12:57:27.813Z,37.87
2023-03-22T13:00:53.875Z,38.23
2023-03-22T13:03:57.740Z,37.56
2023-03-22T13:07:13.665Z,37.44
2023-03-22T13:10:39.472Z,37.34
2023-03-22T13:13:44.488Z,37.08
2023-03-22T13:16:56.219Z,37.07
2023-03-22T13:20:00.740Z,37.06
2023-03-22T13:23:04.721Z,36.16
2023-03-22T13:26:15.029Z,36.40
2023-03-22T13:29:20.090Z,36.61
2023-03-22T13:32:33.461Z,36.09
2023-03-22T13:35:48.866Z,35.46
2023-03-22T13:38:56.599Z,35.51
2023-03-22T13:42:17.670Z,34.77
2023-03-22T13:45:33.640Z,35.73
2023-03-22T13:48:48.803Z,34.69
2023-03-22T13:51:51.509Z,34.31
2023-03-22T13:54:57.220Z,34.33
2023-03-22T13:58:00.137Z,34.47
2023-03-22T14:01:16.707Z,34.38
2023-03-22T14:04:37.428Z,34.36
2023-03-22T14:07:48.143Z,34.32
2023-03-22T14:10:58.532Z,34.37
2023-03-22T14:14:05.467Z,33.99
2023-03-22T14:17:13.800Z,33.98
2023-03-22T14:20:20.140Z,33.75
